createdAt,value
2022-12-31T00:01:24.534Z,3.30
2022-12-31T00:03:51.597Z,3.20
2022-12-31T00:06:30.700Z,3.40
2022-12-31T00:09:01.431Z,3.47
2022-12-31T00:11:29.987Z,3.20
2022-12-31T00:14:00.353Z,3.57
2022-12-31T00:16:39.287Z,3.50
2022-12-31T00:19:08.462Z,3.37
2022-12-31T00:21:36.500Z,3.37
2022-12-31T00:24:04.526Z,3.53
2022-12-31T00:26:35.048Z,3.60
2022-12-31T00:29:03.307Z,3.90
2022-12-31T00:31:36.196Z,3.67
2022-12-31T00:34:03.685Z,4.20
2022-12-31T00:36:37.695Z,4.37
2022-12-31T00:39:08.180Z,4.20
2022-12-31T00:41:35.569Z,4.30
2022-12-31T00:44:05.276Z,4.43
2022-12-31T00:49:00.851Z,4.60
2022-12-31T00:51:28.025Z,4.83
2022-12-31T00:53:56.695Z,4.40
2022-12-31T00:56:29.569Z,4.57
2022-12-31T00:58:59.880Z,4.40
2022-12-31T01:01:36.157Z,4.60
2022-12-31T01:04:11.023Z,6.10
2022-12-31T01:06:41.546Z,4.10
2022-12-31T01:09:10.569Z,4.30
2022-12-31T01:11:37.535Z,4.63
2022-12-31T01:14:11.892Z,4.70
2022-12-31T01:16:44.978Z,4.30
2022-12-31T01:19:19.502Z,4.00
2022-12-31T01:21:47.832Z,4.50
2022-12-31T01:24:15.380Z,4.30
2022-12-31T01:26:44.948Z,4.23
2022-12-31T01:29:16.951Z,4.83
2022-12-31T01:31:44.425Z,4.87
2022-12-31T01:34:11.785Z,5.07
2022-12-31T01:36:41.229Z,5.17
2022-12-31T01:39:11.770Z,5.40
2022-12-31T01:41:42.682Z,5.30
2022-12-31T01:44:12.549Z,5.27
2022-12-31T01:46:46.196Z,5.23
2022-12-31T01:49:44.788Z,5.50
2022-12-31T01:52:39.535Z,5.97
2022-12-31T01:55:23.558Z,6.50
2022-12-31T01:58:06.992Z,5.60
2022-12-31T02:00:35.471Z,6.17
2022-12-31T02:03:05.761Z,5.40
2022-12-31T02:05:39.948Z,5.77
2022-12-31T02:08:07.581Z,6.63
2022-12-31T02:10:35.327Z,7.23
2022-12-31T02:13:04.860Z,6.60
2022-12-31T02:16:09.608Z,7.30
2022-12-31T02:18:50.330Z,7.13
2022-12-31T02:21:25.418Z,5.87
2022-12-31T02:24:36.580Z,6.60
2022-12-31T02:27:35.643Z,6.83
2022-12-31T02:30:10.367Z,6.40
2022-12-31T02:33:10.496Z,6.37
2022-12-31T02:35:58.091Z,5.70
2022-12-31T02:38:35.682Z,5.40
2022-12-31T02:41:02.589Z,6.10
2022-12-31T02:43:29.773Z,6.00
2022-12-31T02:46:26.002Z,6.47
2022-12-31T02:49:16.312Z,5.43
2022-12-31T02:51:54.177Z,5.20
2022-12-31T02:55:29.320Z,5.67
2022-12-31T02:58:14.786Z,5.80
2022-12-31T03:01:10.234Z,4.77
2022-12-31T03:03:40.424Z,4.60
2022-12-31T03:06:10.129Z,7.73
2022-12-31T03:08:57.055Z,4.27
2022-12-31T03:11:47.218Z,4.30
2022-12-31T03:14:14.150Z,4.27
2022-12-31T03:16:41.070Z,4.10
2022-12-31T03:19:28.957Z,3.87
2022-12-31T03:22:14.181Z,3.60
2022-12-31T03:24:59.493Z,3.23
2022-12-31T03:27:26.390Z,3.87
2022-12-31T03:29:53.376Z,3.60
2022-12-31T03:32:20.253Z,3.60
2022-12-31T03:34:47.114Z,3.47
2022-12-31T03:37:14.057Z,2.93
2022-12-31T03:39:41.061Z,2.67
2022-12-31T03:42:08.065Z,2.80
2022-12-31T03:44:34.989Z,2.80
2022-12-31T03:47:04.151Z,3.13
2022-12-31T03:49:33.236Z,2.53
2022-12-31T03:52:00.108Z,3.13
2022-12-31T03:54:27.125Z,3.87
2022-12-31T03:56:58.304Z,2.83
2022-12-31T03:59:33.133Z,3.57
2022-12-31T04:02:00.249Z,3.67
2022-12-31T04:04:27.203Z,3.77
2022-12-31T04:06:54.044Z,3.57
2022-12-31T04:09:20.893Z,3.27
2022-12-31T04:11:50.397Z,3.10
2022-12-31T04:14:17.374Z,3.37
2022-12-31T04:16:47.417Z,2.87
2022-12-31T04:19:14.305Z,3.57
2022-12-31T04:21:43.376Z,3.20
2022-12-31T04:24:13.318Z,3.60
2022-12-31T04:26:44.021Z,3.27
2022-12-31T04:29:13.677Z,2.77
2022-12-31T04:31:43.656Z,2.80
2022-12-31T04:34:13.036Z,3.00
2022-12-31T04:36:40.108Z,2.93
2022-12-31T04:39:06.992Z,5.60
2022-12-31T04:41:38.856Z,2.90
2022-12-31T04:44:08.166Z,2.80
2022-12-31T04:46:35.213Z,2.67
2022-12-31T04:49:02.606Z,5.13
2022-12-31T04:51:33.777Z,2.97
2022-12-31T04:54:01.047Z,2.63
2022-12-31T04:56:30.762Z,2.70
2022-12-31T04:58:57.700Z,4.73
2022-12-31T05:01:24.901Z,2.80
2022-12-31T05:03:51.794Z,3.17
2022-12-31T05:06:28.432Z,3.27
2022-12-31T05:08:57.600Z,2.40
2022-12-31T05:11:24.481Z,2.77
2022-12-31T05:13:54.314Z,3.07
2022-12-31T05:16:21.237Z,3.83
2022-12-31T05:18:48.127Z,5.13
2022-12-31T05:21:21.075Z,2.73
2022-12-31T05:23:51.693Z,2.20
2022-12-31T05:26:21.602Z,2.10
2022-12-31T05:28:50.770Z,2.47
2022-12-31T05:31:17.736Z,1.83
2022-12-31T05:33:44.842Z,1.53
2022-12-31T05:36:11.864Z,1.87
2022-12-31T05:38:41.479Z,1.47
2022-12-31T05:41:08.430Z,1.67
2022-12-31T05:43:35.575Z,1.90
2022-12-31T05:46:06.679Z,1.70
2022-12-31T05:48:33.560Z,1.70
2022-12-31T05:51:00.536Z,1.90
2022-12-31T05:53:27.391Z,1.67
2022-12-31T05:55:54.283Z,1.80
2022-12-31T05:58:24.200Z,1.50
2022-12-31T06:00:52.378Z,1.53
2022-12-31T06:03:19.349Z,1.57
2022-12-31T06:05:48.500Z,1.53
2022-12-31T06:08:15.387Z,1.90
2022-12-31T06:10:42.623Z,1.43
2022-12-31T06:13:10.590Z,1.30
2022-12-31T06:15:41.914Z,1.60
2022-12-31T06:18:11.064Z,4.00
2022-12-31T06:20:38.529Z,1.03
2022-12-31T06:23:06.022Z,1.30
2022-12-31T06:25:34.780Z,1.00
2022-12-31T06:28:04.832Z,1.30
2022-12-31T06:30:32.153Z,6.53
2022-12-31T06:32:59.032Z,3.00
2022-12-31T06:35:25.880Z,1.60
2022-12-31T06:37:53.346Z,1.50
2022-12-31T06:40:22.246Z,1.40
2022-12-31T06:42:49.863Z,1.40
2022-12-31T06:45:19.681Z,1.10
2022-12-31T06:47:46.636Z,1.37
2022-12-31T06:50:13.470Z,1.00
2022-12-31T06:52:42.798Z,1.00
2022-12-31T06:55:10.765Z,1.40
2022-12-31T06:57:37.997Z,3.23
2022-12-31T07:00:08.089Z,1.30
2022-12-31T07:03:41.975Z,1.00
2022-12-31T07:06:31.188Z,1.40
2022-12-31T07:09:27.379Z,1.17
2022-12-31T07:12:01.623Z,1.20
2022-12-31T07:14:52.135Z,1.00
2022-12-31T07:17:41.201Z,0.93
2022-12-31T07:20:16.343Z,0.97
2022-12-31T07:22:44.926Z,1.70
2022-12-31T07:25:23.451Z,1.00
2022-12-31T07:28:25.546Z,0.90
2022-12-31T07:31:37.281Z,7.03
2022-12-31T07:34:29.555Z,1.40
2022-12-31T07:37:15.714Z,1.10
2022-12-31T07:40:18.939Z,1.97
2022-12-31T07:43:10.590Z,0.90
2022-12-31T07:45:54.313Z,0.90
2022-12-31T07:48:29.454Z,1.10
2022-12-31T07:51:00.372Z,1.47
2022-12-31T07:53:30.040Z,1.00
2022-12-31T07:56:00.545Z,0.97
2022-12-31T07:59:07.265Z,3.07
2022-12-31T08:01:40.773Z,1.03
2022-12-31T08:04:20.461Z,1.50
2022-12-31T08:07:00.459Z,4.40
2022-12-31T08:10:11.293Z,1.47
2022-12-31T08:12:46.108Z,1.30
2022-12-31T08:15:24.125Z,2.17
2022-12-31T08:17:54.265Z,1.10
2022-12-31T08:20:21.659Z,1.00
2022-12-31T08:23:19.253Z,1.20
2022-12-31T08:26:16.110Z,1.50
2022-12-31T08:29:22.411Z,1.67
2022-12-31T08:32:07.371Z,3.50
2022-12-31T08:34:39.919Z,1.97
2022-12-31T08:37:32.792Z,1.43
2022-12-31T08:40:08.348Z,1.00
2022-12-31T08:43:15.498Z,1.70
2022-12-31T08:45:48.977Z,3.03
2022-12-31T08:48:43.595Z,1.30
2022-12-31T08:51:22.473Z,1.37
2022-12-31T08:53:51.280Z,0.97
2022-12-31T08:56:37.788Z,1.00
2022-12-31T08:59:42.743Z,1.00
2022-12-31T09:02:48.337Z,2.10
2022-12-31T09:05:36.556Z,1.10
2022-12-31T09:08:20.733Z,1.70
2022-12-31T09:11:20.857Z,4.57
2022-12-31T09:14:34.365Z,1.17
2022-12-31T09:17:19.846Z,2.37
2022-12-31T09:19:49.135Z,0.90
2022-12-31T09:22:16.415Z,1.10
2022-12-31T09:24:43.541Z,0.70
2022-12-31T09:27:28.034Z,0.80
2022-12-31T09:30:16.780Z,1.10
2022-12-31T09:33:36.303Z,0.80
2022-12-31T09:36:09.146Z,1.67
2022-12-31T09:38:45.170Z,1.20
2022-12-31T09:41:48.877Z,1.00
2022-12-31T09:44:59.469Z,0.63
2022-12-31T09:48:16.991Z,4.00
2022-12-31T09:51:13.693Z,0.70
2022-12-31T09:54:05.282Z,3.70
2022-12-31T09:57:14.686Z,0.60
2022-12-31T10:00:10.952Z,0.73
2022-12-31T10:03:25.209Z,0.97
2022-12-31T10:06:38.186Z,0.60
2022-12-31T10:09:35.734Z,0.87
2022-12-31T10:12:23.381Z,2.67
2022-12-31T10:15:37.603Z,1.50
2022-12-31T10:18:41.721Z,0.83
2022-12-31T10:21:30.426Z,3.30
2022-12-31T10:24:28.378Z,0.83
2022-12-31T10:27:26.635Z,1.33
2022-12-31T10:30:26.277Z,0.83
2022-12-31T10:33:20.249Z,3.27
2022-12-31T10:36:00.507Z,3.60
2022-12-31T10:39:13.497Z,0.87
2022-12-31T10:41:54.543Z,0.93
2022-12-31T10:45:00.981Z,6.33
2022-12-31T10:48:04.578Z,1.70
2022-12-31T10:51:31.414Z,2.87
2022-12-31T10:54:13.508Z,6.73
2022-12-31T10:57:09.280Z,0.70
2022-12-31T11:00:17.270Z,2.70
2022-12-31T11:03:31.762Z,0.93
2022-12-31T11:06:47.255Z,0.90
2022-12-31T11:09:42.168Z,0.67
2022-12-31T11:12:42.230Z,0.63
2022-12-31T11:15:21.212Z,1.00
2022-12-31T11:18:22.569Z,0.80
2022-12-31T11:21:00.155Z,1.57
2022-12-31T11:23:48.013Z,0.80
2022-12-31T11:26:40.274Z,0.90
2022-12-31T11:29:12.712Z,1.37
2022-12-31T11:32:05.633Z,0.80
2022-12-31T11:34:56.405Z,0.70
2022-12-31T11:37:48.299Z,1.40
2022-12-31T11:40:53.912Z,0.90
2022-12-31T11:43:35.451Z,0.90
2022-12-31T11:46:51.360Z,1.33
2022-12-31T11:49:25.329Z,0.60
2022-12-31T11:52:18.267Z,0.70
2022-12-31T11:55:10.111Z,0.70
2022-12-31T11:57:39.196Z,1.20
2022-12-31T12:00:22.671Z,0.80
2022-12-31T12:03:01.073Z,0.67
2022-12-31T12:05:28.696Z,0.60
2022-12-31T12:08:02.495Z,0.50
2022-12-31T12:10:53.664Z,0.77
2022-12-31T12:13:30.100Z,2.10
2022-12-31T12:16:05.212Z,2.17
2022-12-31T12:19:01.333Z,13.17
2022-12-31T12:21:29.389Z,0.80
2022-12-31T12:24:41.136Z,0.97
2022-12-31T12:27:26.766Z,1.10
2022-12-31T12:29:53.750Z,0.80
2022-12-31T12:32:26.264Z,0.70
2022-12-31T12:34:53.710Z,0.60
2022-12-31T12:37:35.405Z,0.73
2022-12-31T12:40:33.359Z,0.77
2022-12-31T12:43:03.944Z,0.53
2022-12-31T12:45:51.177Z,0.80
2022-12-31T12:48:33.117Z,0.83
2022-12-31T12:51:04.973Z,0.70
2022-12-31T12:54:00.163Z,1.03
2022-12-31T12:56:59.923Z,1.23
2022-12-31T12:59:35.843Z,2.93
2022-12-31T13:02:33.782Z,4.10
2022-12-31T13:05:31.738Z,1.60
2022-12-31T13:08:17.316Z,0.60
2022-12-31T13:11:11.393Z,0.70
2022-12-31T13:14:03.768Z,3.50
2022-12-31T13:17:13.589Z,2.80
2022-12-31T13:19:50.405Z,1.20
2022-12-31T13:22:38.096Z,0.80
2022-12-31T13:25:36.647Z,1.00
2022-12-31T13:28:14.783Z,1.80
2022-12-31T13:30:51.518Z,0.93
2022-12-31T13:33:33.428Z,3.20
2022-12-31T13:36:04.351Z,2.00
2022-12-31T13:38:42.852Z,3.63
2022-12-31T13:41:43.891Z,1.20
2022-12-31T13:44:42.130Z,6.10
2022-12-31T13:47:36.693Z,1.10
2022-12-31T13:50:19.362Z,1.73
2022-12-31T13:53:27.313Z,3.60
2022-12-31T13:56:03.796Z,1.10
2022-12-31T13:58:50.559Z,1.17
2022-12-31T14:01:37.146Z,1.50
2022-12-31T14:04:14.591Z,1.20
2022-12-31T14:06:58.285Z,1.73
2022-12-31T14:09:37.818Z,0.83
2022-12-31T14:12:07.675Z,2.63
2022-12-31T14:15:07.703Z,4.20
2022-12-31T14:18:11.622Z,1.10
2022-12-31T14:20:49.470Z,5.70
2022-12-31T14:23:47.042Z,0.90
2022-12-31T14:26:42.417Z,2.93
2022-12-31T14:29:12.065Z,0.87
2022-12-31T14:31:53.663Z,1.57
2022-12-31T14:34:55.925Z,3.30
2022-12-31T14:37:42.721Z,5.83
2022-12-31T14:40:34.393Z,3.57
2022-12-31T14:43:23.724Z,2.17
2022-12-31T14:46:22.531Z,2.00
2022-12-31T14:49:13.192Z,2.87
2022-12-31T14:51:40.182Z,2.20
2022-12-31T14:54:37.343Z,2.57
2022-12-31T14:57:26.225Z,2.57
2022-12-31T15:00:00.696Z,4.07
2022-12-31T15:02:34.871Z,2.43
2022-12-31T15:05:29.107Z,3.60
2022-12-31T15:08:08.191Z,5.37
2022-12-31T15:11:00.408Z,4.47
2022-12-31T15:14:16.891Z,2.60
2022-12-31T15:16:55.713Z,5.70
2022-12-31T15:20:17.303Z,4.13
2022-12-31T15:22:44.670Z,5.57
2022-12-31T15:25:38.373Z,7.80
2022-12-31T15:28:38.669Z,3.70
2022-12-31T15:31:07.702Z,5.40
2022-12-31T15:34:03.358Z,4.37
2022-12-31T15:36:36.081Z,3.33
2022-12-31T15:39:11.983Z,4.37
2022-12-31T15:42:18.672Z,4.23
2022-12-31T15:44:50.756Z,9.90
2022-12-31T15:47:27.961Z,6.43
2022-12-31T15:50:00.615Z,4.77
2022-12-31T15:52:40.294Z,2.90
2022-12-31T15:55:10.332Z,5.17
2022-12-31T15:57:42.078Z,3.60
2022-12-31T16:00:55.776Z,2.60
2022-12-31T16:03:29.237Z,4.10
2022-12-31T16:06:08.598Z,5.53
2022-12-31T16:08:35.819Z,5.20
2022-12-31T16:11:06.321Z,5.87
2022-12-31T16:13:41.385Z,6.33
2022-12-31T16:16:21.284Z,6.00
2022-12-31T16:18:50.211Z,3.37
2022-12-31T16:21:36.531Z,4.90
2022-12-31T16:24:31.916Z,14.20
2022-12-31T16:27:07.604Z,3.17
2022-12-31T16:29:43.073Z,3.70
2022-12-31T16:32:17.389Z,3.30
2022-12-31T16:34:45.426Z,6.50
2022-12-31T16:37:17.902Z,7.70
2022-12-31T16:39:56.867Z,2.43
2022-12-31T16:42:32.173Z,2.60
2022-12-31T16:45:31.826Z,6.50
2022-12-31T16:48:19.051Z,4.30
2022-12-31T16:50:52.856Z,3.13
2022-12-31T16:53:26.918Z,3.30
2022-12-31T16:56:01.212Z,3.97
2022-12-31T16:58:39.648Z,3.23
2022-12-31T17:01:18.675Z,3.37
2022-12-31T17:03:53.247Z,3.60
2022-12-31T17:06:24.213Z,5.60
2022-12-31T17:08:58.083Z,2.90
2022-12-31T17:11:33.413Z,2.67
2022-12-31T17:14:13.959Z,5.60
2022-12-31T17:17:07.417Z,6.90
2022-12-31T17:19:56.045Z,5.33
2022-12-31T17:22:42.452Z,5.53
2022-12-31T17:25:24.354Z,57.87
2022-12-31T17:28:19.382Z,8.33
2022-12-31T17:30:46.426Z,12.57
2022-12-31T17:33:22.579Z,12.33
2022-12-31T17:35:56.855Z,8.33
2022-12-31T17:38:28.291Z,5.30
2022-12-31T17:40:56.143Z,14.70
2022-12-31T17:43:24.050Z,5.60
2022-12-31T17:45:52.866Z,4.10
2022-12-31T17:48:20.583Z,7.10
2022-12-31T17:50:55.928Z,7.47
2022-12-31T17:53:23.022Z,8.43
2022-12-31T17:55:56.936Z,4.17
2022-12-31T17:58:33.688Z,13.17
2022-12-31T18:01:05.328Z,3.23
2022-12-31T18:03:35.133Z,6.73
2022-12-31T18:06:05.463Z,7.60
2022-12-31T18:08:34.905Z,3.07
2022-12-31T18:11:04.847Z,9.63
2022-12-31T18:13:31.859Z,7.90
2022-12-31T18:15:58.753Z,12.80
2022-12-31T18:18:32.582Z,13.33
2022-12-31T18:21:36.061Z,18.47
2022-12-31T18:24:09.312Z,4.43
2022-12-31T18:26:36.179Z,10.00
2022-12-31T18:29:17.458Z,16.53
2022-12-31T18:31:49.787Z,11.50
2022-12-31T18:34:18.598Z,4.37
2022-12-31T18:36:48.623Z,10.03
2022-12-31T18:39:15.518Z,12.37
2022-12-31T18:41:49.409Z,8.40
2022-12-31T18:44:18.988Z,7.83
2022-12-31T18:46:48.094Z,10.87
2022-12-31T18:49:14.939Z,10.17
2022-12-31T18:51:41.881Z,6.07
2022-12-31T18:54:13.515Z,4.60
2022-12-31T18:56:47.657Z,5.03
2022-12-31T18:59:16.240Z,7.63
2022-12-31T19:01:43.188Z,13.97
2022-12-31T19:04:27.589Z,12.87
2022-12-31T19:06:54.993Z,9.70
2022-12-31T19:09:44.726Z,10.40
2022-12-31T19:12:16.540Z,9.27
2022-12-31T19:14:45.857Z,9.57
2022-12-31T19:17:12.851Z,7.53
2022-12-31T19:19:42.207Z,16.90
2022-12-31T19:22:15.387Z,10.53
2022-12-31T19:24:42.450Z,10.57
2022-12-31T19:27:10.206Z,7.00
2022-12-31T19:29:37.378Z,7.33
2022-12-31T19:32:04.803Z,23.50
2022-12-31T19:34:31.730Z,8.70
2022-12-31T19:37:01.607Z,12.57
2022-12-31T19:39:31.569Z,8.00
2022-12-31T19:41:59.452Z,4.47
2022-12-31T19:44:31.498Z,5.20
2022-12-31T19:46:58.369Z,5.57
2022-12-31T19:49:27.774Z,7.00
2022-12-31T19:51:54.782Z,4.83
2022-12-31T19:54:21.711Z,6.63
2022-12-31T19:56:48.522Z,7.47
2022-12-31T19:59:15.377Z,5.17
2022-12-31T20:01:42.293Z,6.23
2022-12-31T20:04:11.440Z,15.63
2022-12-31T20:06:40.837Z,13.10
2022-12-31T20:09:07.983Z,5.60
2022-12-31T20:11:34.911Z,20.63
2022-12-31T20:14:01.819Z,13.43
2022-12-31T20:16:31.712Z,4.40
2022-12-31T20:19:05.992Z,4.50
2022-12-31T20:21:34.906Z,7.50
2022-12-31T20:24:04.655Z,3.07
2022-12-31T20:26:34.017Z,6.37
2022-12-31T20:29:00.856Z,7.10
2022-12-31T20:31:27.824Z,6.63
2022-12-31T20:33:55.365Z,10.30
2022-12-31T20:36:23.598Z,8.33
2022-12-31T20:38:50.825Z,12.20
2022-12-31T20:41:20.963Z,6.17
2022-12-31T20:43:48.698Z,9.93
2022-12-31T20:46:19.664Z,4.33
2022-12-31T20:48:49.373Z,5.63
2022-12-31T20:51:17.685Z,3.80
2022-12-31T20:53:51.567Z,5.77
2022-12-31T20:56:23.306Z,3.43
2022-12-31T20:58:52.951Z,6.20
2022-12-31T21:01:24.416Z,2.83
2022-12-31T21:04:07.966Z,5.30
2022-12-31T21:06:37.237Z,6.13
2022-12-31T21:09:06.942Z,5.10
2022-12-31T21:11:55.509Z,7.33
2022-12-31T21:14:22.436Z,12.10
2022-12-31T21:16:49.856Z,5.30
2022-12-31T21:19:16.790Z,6.57
2022-12-31T21:21:43.768Z,14.27
2022-12-31T21:24:10.949Z,7.80
2022-12-31T21:26:38.132Z,3.83
2022-12-31T21:29:09.618Z,7.13
2022-12-31T21:31:36.634Z,5.63
2022-12-31T21:34:03.594Z,4.57
2022-12-31T21:36:31.703Z,9.70
2022-12-31T21:38:58.737Z,13.77
2022-12-31T21:41:46.630Z,4.10
2022-12-31T21:44:18.886Z,14.80
2022-12-31T21:47:07.995Z,5.00
2022-12-31T21:49:36.953Z,9.50
2022-12-31T21:52:22.825Z,5.50
2022-12-31T21:55:23.280Z,6.67
2022-12-31T21:58:24.837Z,4.23
2022-12-31T22:01:01.698Z,7.03
2022-12-31T22:03:29.714Z,4.30
2022-12-31T22:06:08.985Z,4.00
2022-12-31T22:08:36.089Z,6.23
2022-12-31T22:11:03.108Z,15.30
2022-12-31T22:13:30.087Z,7.57
2022-12-31T22:16:04.654Z,9.60
2022-12-31T22:18:38.898Z,21.77
2022-12-31T22:21:09.634Z,3.27
2022-12-31T22:23:43.884Z,6.30
2022-12-31T22:26:19.334Z,13.43
2022-12-31T22:28:46.661Z,5.43
2022-12-31T22:31:21.737Z,17.87
2022-12-31T22:33:49.015Z,10.70
2022-12-31T22:36:22.140Z,18.70
2022-12-31T22:38:59.847Z,9.37
2022-12-31T22:41:30.656Z,17.80
2022-12-31T22:44:04.629Z,10.33
2022-12-31T22:46:32.456Z,18.10
2022-12-31T22:49:00.864Z,6.83
2022-12-31T22:51:56.822Z,7.50
2022-12-31T22:54:18.644Z,11.60
2022-12-31T22:56:45.831Z,8.83
2022-12-31T22:59:15.801Z,15.73
2022-12-31T23:01:42.850Z,160.20
2022-12-31T23:04:09.916Z,168.07
2022-12-31T23:06:44.649Z,72.43
2022-12-31T23:09:34.920Z,73.77
2022-12-31T23:12:05.540Z,68.00
2022-12-31T23:14:53.881Z,138.10
2022-12-31T23:17:45.654Z,38.53
2022-12-31T23:20:42.982Z,72.27
2022-12-31T23:23:16.087Z,35.63
2022-12-31T23:25:50.151Z,32.00
2022-12-31T23:28:20.830Z,27.60
2022-12-31T23:30:51.460Z,29.20
2022-12-31T23:33:25.157Z,25.20
2022-12-31T23:36:13.160Z,24.33
2022-12-31T23:38:40.046Z,24.10
2022-12-31T23:41:19.745Z,29.87
2022-12-31T23:43:49.644Z,35.20
2022-12-31T23:46:17.614Z,15.10
2022-12-31T23:48:46.602Z,13.43
2022-12-31T23:51:21.119Z,28.27
2022-12-31T23:53:48.324Z,19.00
2022-12-31T23:56:23.726Z,15.60
2022-12-31T23:58:59.169Z,13.40
